createdAt,value
2022-11-30T00:00:42.882Z,51.70
2022-11-30T00:03:44.771Z,53.60
2022-11-30T00:06:46.057Z,53.40
2022-11-30T00:09:47.295Z,53.20
2022-11-30T00:12:48.721Z,53.20
2022-11-30T00:15:50.059Z,53.10
2022-11-30T00:18:52.034Z,53.30
2022-11-30T00:21:53.370Z,53.20
2022-11-30T00:24:54.599Z,53.30
2022-11-30T00:27:59.351Z,53.40
2022-11-30T00:31:02.340Z,53.20
2022-11-30T00:34:04.289Z,53.40
2022-11-30T00:37:05.524Z,53.40
2022-11-30T00:40:07.309Z,53.30
2022-11-30T00:43:08.555Z,53.20
2022-11-30T00:46:10.278Z,53.40
2022-11-30T00:49:12.219Z,53.30
2022-11-30T00:52:13.614Z,53.00
2022-11-30T00:55:14.952Z,53.40
2022-11-30T00:58:16.555Z,53.10
2022-11-30T01:01:18.003Z,53.00
2022-11-30T01:04:19.885Z,53.40
2022-11-30T01:07:21.239Z,53.00
2022-11-30T01:10:22.555Z,53.50
2022-11-30T01:13:23.946Z,53.50
2022-11-30T01:16:26.360Z,53.10
2022-11-30T01:19:28.350Z,53.20
2022-11-30T01:22:29.745Z,53.00
2022-11-30T01:25:31.073Z,53.20
2022-11-30T01:28:32.824Z,53.10
2022-11-30T01:31:36.035Z,53.70
2022-11-30T01:34:37.892Z,53.50
2022-11-30T01:37:39.105Z,53.20
2022-11-30T01:40:40.437Z,53.20
2022-11-30T01:43:42.589Z,53.50
2022-11-30T01:46:45.745Z,53.20
2022-11-30T01:49:49.073Z,53.00
2022-11-30T01:52:51.487Z,53.40
2022-11-30T01:55:52.701Z,53.10
2022-11-30T01:58:54.016Z,53.10
2022-11-30T02:01:55.703Z,53.20
2022-11-30T02:04:57.551Z,53.30
2022-11-30T02:07:59.006Z,53.30
2022-11-30T02:11:03.007Z,53.20
2022-11-30T02:14:10.205Z,53.20
2022-11-30T02:17:16.718Z,53.20
2022-11-30T02:20:28.898Z,53.30
2022-11-30T02:23:41.831Z,52.90
2022-11-30T02:26:54.082Z,53.30
2022-11-30T02:29:58.465Z,53.10
2022-11-30T02:33:02.429Z,53.20
2022-11-30T02:36:05.371Z,53.30
2022-11-30T02:39:06.765Z,53.20
2022-11-30T02:42:10.112Z,53.50
2022-11-30T02:45:12.101Z,53.00
2022-11-30T02:48:14.433Z,53.20
2022-11-30T02:51:18.312Z,53.40
2022-11-30T02:54:19.651Z,52.90
2022-11-30T02:57:20.914Z,53.30
2022-11-30T03:00:22.921Z,53.50
2022-11-30T03:03:24.347Z,53.20
2022-11-30T03:06:25.607Z,53.60
2022-11-30T03:09:26.813Z,53.20
2022-11-30T03:12:28.540Z,53.10
2022-11-30T03:15:30.387Z,53.20
2022-11-30T03:18:31.683Z,53.20
2022-11-30T03:21:33.003Z,53.40
2022-11-30T03:24:34.432Z,53.00
2022-11-30T03:27:35.706Z,53.10
2022-11-30T03:30:37.604Z,53.30
2022-11-30T03:33:40.493Z,53.20
2022-11-30T03:36:41.746Z,53.00
2022-11-30T03:39:42.983Z,53.20
2022-11-30T03:42:44.225Z,53.10
2022-11-30T03:45:46.063Z,53.30
2022-11-30T03:48:47.331Z,53.10
2022-11-30T03:51:48.633Z,53.20
2022-11-30T03:54:49.985Z,53.60
2022-11-30T03:57:51.316Z,53.20
2022-11-30T04:00:58.449Z,53.20
2022-11-30T04:03:59.819Z,53.10
2022-11-30T04:07:01.193Z,53.20
2022-11-30T04:10:06.966Z,53.10
2022-11-30T04:13:09.785Z,53.30
2022-11-30T04:16:11.679Z,53.10
2022-11-30T04:19:13.002Z,53.10
2022-11-30T04:22:14.325Z,53.00
2022-11-30T04:25:15.827Z,52.90
2022-11-30T04:28:17.727Z,53.20
2022-11-30T04:31:19.571Z,52.80
2022-11-30T04:34:20.884Z,52.90
2022-11-30T04:37:22.138Z,53.00
2022-11-30T04:40:23.422Z,53.10
2022-11-30T04:43:24.975Z,52.90
2022-11-30T04:46:26.829Z,52.90
2022-11-30T04:49:28.196Z,53.00
2022-11-30T04:52:29.530Z,53.10
2022-11-30T04:55:31.187Z,52.60
2022-11-30T04:58:32.551Z,52.70
2022-11-30T05:01:34.489Z,53.20
2022-11-30T05:04:35.777Z,52.90
2022-11-30T05:07:37.345Z,52.90
2022-11-30T05:10:38.605Z,53.00
2022-11-30T05:13:39.882Z,52.90
2022-11-30T05:16:41.805Z,52.70
2022-11-30T05:19:43.163Z,52.90
2022-11-30T05:22:44.457Z,53.00
2022-11-30T05:25:46.119Z,53.00
2022-11-30T05:28:47.355Z,53.00
2022-11-30T05:31:49.228Z,52.80
2022-11-30T05:34:51.968Z,52.80
2022-11-30T05:37:53.539Z,52.90
2022-11-30T05:40:59.440Z,52.60
2022-11-30T05:44:00.702Z,52.80
2022-11-30T05:47:02.612Z,53.00
2022-11-30T05:50:04.437Z,53.10
2022-11-30T05:53:05.786Z,52.70
2022-11-30T05:56:08.266Z,53.00
2022-11-30T05:59:10.034Z,53.00
2022-11-30T06:02:12.027Z,52.60
2022-11-30T06:05:13.399Z,53.00
2022-11-30T06:08:14.624Z,53.00
2022-11-30T06:11:16.279Z,53.00
2022-11-30T06:14:17.529Z,52.60
2022-11-30T06:17:19.380Z,52.90
2022-11-30T06:20:20.729Z,52.90
2022-11-30T06:23:22.151Z,53.00
2022-11-30T06:26:24.806Z,53.30
2022-11-30T06:29:26.334Z,52.50
2022-11-30T06:32:28.238Z,52.80
2022-11-30T06:35:29.599Z,52.70
2022-11-30T06:38:30.886Z,52.80
2022-11-30T06:41:32.202Z,52.80
2022-11-30T06:44:33.490Z,52.50
2022-11-30T06:47:35.525Z,52.70
2022-11-30T06:50:36.972Z,52.80
2022-11-30T06:53:38.379Z,52.40
2022-11-30T06:56:39.719Z,52.80
2022-11-30T06:59:41.588Z,52.40
2022-11-30T07:02:43.451Z,52.60
2022-11-30T07:05:45.278Z,52.60
2022-11-30T07:08:46.651Z,52.30
2022-11-30T07:11:47.994Z,52.40
2022-11-30T07:14:52.020Z,52.90
2022-11-30T07:17:53.885Z,52.40
2022-11-30T07:20:57.767Z,52.50
2022-11-30T07:24:11.594Z,52.60
2022-11-30T07:27:13.311Z,52.50
2022-11-30T07:30:14.750Z,52.20
2022-11-30T07:33:16.558Z,52.50
2022-11-30T07:36:18.855Z,52.30
2022-11-30T07:39:20.112Z,52.20
2022-11-30T07:42:22.147Z,52.10
2022-11-30T07:45:23.403Z,52.00
2022-11-30T07:48:25.298Z,52.30
2022-11-30T07:51:26.558Z,52.10
2022-11-30T07:54:28.096Z,51.70
2022-11-30T07:57:29.562Z,51.60
2022-11-30T08:00:31.067Z,51.80
2022-11-30T08:03:36.780Z,51.90
2022-11-30T08:06:38.229Z,51.70
2022-11-30T08:09:39.618Z,52.10
2022-11-30T08:12:40.966Z,51.50
2022-11-30T08:15:42.453Z,51.60
2022-11-30T08:18:45.130Z,51.70
2022-11-30T08:21:46.664Z,51.60
2022-11-30T08:24:48.372Z,51.00
2022-11-30T08:27:50.157Z,52.00
2022-11-30T08:30:51.617Z,51.40
2022-11-30T08:33:55.471Z,51.60
2022-11-30T08:36:56.911Z,51.50
2022-11-30T08:39:58.492Z,51.60
2022-11-30T08:43:00.428Z,51.30
2022-11-30T08:46:11.357Z,51.40
2022-11-30T08:49:24.744Z,51.50
2022-11-30T08:52:26.797Z,50.90
2022-11-30T08:55:28.226Z,51.50
2022-11-30T08:58:30.487Z,50.70
2022-11-30T09:01:33.315Z,50.70
2022-11-30T09:04:35.593Z,50.90
2022-11-30T09:07:37.160Z,50.40
2022-11-30T09:10:38.961Z,51.00
2022-11-30T09:13:40.904Z,51.00
2022-11-30T09:16:42.230Z,50.70
2022-11-30T09:19:44.203Z,51.20
2022-11-30T09:22:45.752Z,50.50
2022-11-30T09:25:54.054Z,51.00
2022-11-30T09:28:55.678Z,50.70
2022-11-30T09:31:56.967Z,50.30
2022-11-30T09:34:59.024Z,50.40
2022-11-30T09:38:00.369Z,49.90
2022-11-30T09:41:04.534Z,52.20
2022-11-30T09:44:09.854Z,52.10
2022-11-30T09:47:20.507Z,51.90
2022-11-30T09:50:23.841Z,52.00
2022-11-30T09:53:29.740Z,52.50
2022-11-30T09:56:32.681Z,52.00
2022-11-30T09:59:37.262Z,51.70
2022-11-30T10:02:42.147Z,51.80
2022-11-30T10:05:47.416Z,51.10
2022-11-30T10:08:54.815Z,51.40
2022-11-30T10:11:59.699Z,51.10
2022-11-30T10:15:05.055Z,50.60
2022-11-30T10:18:09.500Z,51.30
2022-11-30T10:21:16.575Z,51.70
2022-11-30T10:24:27.273Z,51.40
2022-11-30T10:27:34.206Z,51.50
2022-11-30T10:30:36.194Z,50.80
2022-11-30T10:33:40.053Z,51.20
2022-11-30T10:36:43.941Z,51.10
2022-11-30T10:39:47.443Z,51.00
2022-11-30T10:42:51.813Z,51.00
2022-11-30T10:45:53.426Z,50.50
2022-11-30T10:48:57.276Z,51.00
2022-11-30T10:52:01.348Z,51.00
2022-11-30T10:55:05.182Z,50.90
2022-11-30T10:58:09.454Z,51.30
2022-11-30T11:01:27.909Z,50.80
2022-11-30T11:04:29.265Z,51.00
2022-11-30T11:07:31.326Z,50.90
2022-11-30T11:10:33.966Z,50.80
2022-11-30T11:13:36.572Z,51.00
2022-11-30T11:16:49.006Z,51.00
2022-11-30T11:19:50.643Z,50.80
2022-11-30T11:22:52.773Z,50.50
2022-11-30T11:25:54.404Z,50.80
2022-11-30T11:28:58.805Z,51.10
2022-11-30T11:32:12.088Z,50.60
2022-11-30T11:35:31.604Z,51.00
2022-11-30T11:38:39.918Z,51.00
2022-11-30T11:41:41.245Z,51.30
2022-11-30T11:44:42.623Z,50.70
2022-11-30T11:47:45.079Z,51.10
2022-11-30T11:51:06.718Z,51.00
2022-11-30T11:54:18.207Z,50.90
2022-11-30T11:57:20.697Z,50.70
2022-11-30T12:00:24.574Z,51.10
2022-11-30T12:03:29.614Z,51.00
2022-11-30T12:06:31.874Z,51.20
2022-11-30T12:09:38.365Z,50.90
2022-11-30T12:12:45.999Z,50.60
2022-11-30T12:15:57.863Z,51.10
2022-11-30T12:19:02.262Z,51.00
2022-11-30T12:22:08.986Z,51.00
2022-11-30T12:25:18.085Z,51.00
2022-11-30T12:28:24.460Z,51.10
2022-11-30T12:31:31.151Z,51.20
2022-11-30T12:34:42.302Z,50.90
2022-11-30T12:37:48.310Z,51.30
2022-11-30T12:40:55.016Z,51.10
2022-11-30T12:43:59.780Z,51.10
2022-11-30T12:47:16.008Z,50.90
2022-11-30T12:50:22.376Z,51.10
2022-11-30T12:53:25.223Z,50.60
2022-11-30T12:56:35.009Z,51.10
2022-11-30T12:59:41.097Z,50.80
2022-11-30T13:02:51.799Z,51.00
2022-11-30T13:05:57.065Z,51.00
2022-11-30T13:08:59.910Z,51.10
2022-11-30T13:12:04.695Z,50.60
2022-11-30T13:15:15.218Z,50.60
2022-11-30T13:18:17.888Z,50.70
2022-11-30T13:21:23.922Z,50.40
2022-11-30T13:24:28.195Z,50.10
2022-11-30T13:27:32.223Z,50.20
2022-11-30T13:30:38.454Z,50.20
2022-11-30T13:33:45.347Z,49.70
2022-11-30T13:36:47.361Z,49.80
2022-11-30T13:39:49.732Z,50.30
2022-11-30T13:42:54.324Z,49.80
2022-11-30T13:46:01.884Z,49.70
2022-11-30T13:49:18.000Z,49.50
2022-11-30T13:52:39.330Z,49.90
2022-11-30T13:55:52.550Z,49.70
2022-11-30T13:59:09.789Z,49.60
2022-11-30T14:02:21.811Z,49.80
2022-11-30T14:05:33.890Z,49.70
2022-11-30T14:08:36.756Z,50.10
2022-11-30T14:11:39.393Z,49.80
2022-11-30T14:14:45.380Z,49.80
2022-11-30T14:17:47.611Z,49.50
2022-11-30T14:20:53.304Z,49.60
2022-11-30T14:23:57.001Z,49.30
2022-11-30T14:26:58.370Z,49.10
2022-11-30T14:30:01.621Z,49.30
2022-11-30T14:33:05.930Z,49.20
2022-11-30T14:36:08.558Z,49.00
2022-11-30T14:39:23.260Z,49.60
2022-11-30T14:42:25.623Z,49.70
2022-11-30T14:45:28.303Z,49.70
2022-11-30T14:48:29.648Z,49.60
2022-11-30T14:51:32.303Z,49.20
2022-11-30T14:54:38.999Z,49.20
2022-11-30T14:57:43.048Z,49.10
2022-11-30T15:00:44.708Z,49.20
2022-11-30T15:03:47.291Z,49.00
2022-11-30T15:06:49.219Z,49.30
2022-11-30T15:09:51.529Z,49.20
2022-11-30T15:12:52.978Z,49.30
2022-11-30T15:15:55.017Z,49.30
2022-11-30T15:18:57.451Z,49.40
2022-11-30T15:21:59.424Z,49.80
2022-11-30T15:25:01.071Z,49.50
2022-11-30T15:28:04.093Z,49.70
2022-11-30T15:31:06.998Z,49.50
2022-11-30T15:34:17.344Z,49.20
2022-11-30T15:37:19.552Z,49.80
2022-11-30T15:40:25.935Z,49.60
2022-11-30T15:43:30.019Z,50.20
2022-11-30T15:46:33.812Z,49.40
2022-11-30T15:49:35.578Z,49.60
2022-11-30T15:52:42.804Z,49.20
2022-11-30T15:55:45.118Z,49.50
2022-11-30T15:58:58.987Z,49.90
2022-11-30T16:02:03.873Z,49.30
2022-11-30T16:05:20.117Z,49.60
2022-11-30T16:08:22.372Z,49.30
2022-11-30T16:11:23.872Z,49.30
2022-11-30T16:14:25.186Z,49.70
2022-11-30T16:17:29.193Z,49.40
2022-11-30T16:20:30.541Z,49.60
2022-11-30T16:23:34.003Z,49.50
2022-11-30T16:26:50.404Z,49.60
2022-11-30T16:29:53.074Z,49.00
2022-11-30T16:32:54.442Z,49.70
2022-11-30T16:35:56.542Z,49.60
2022-11-30T16:38:58.501Z,49.70
2022-11-30T16:41:59.889Z,49.60
2022-11-30T16:45:01.224Z,49.80
2022-11-30T16:48:02.865Z,49.20
2022-11-30T16:51:04.289Z,49.80
2022-11-30T16:54:06.236Z,48.90
2022-11-30T16:57:12.495Z,49.30
2022-11-30T17:00:15.135Z,47.50
2022-11-30T17:03:18.471Z,49.40
2022-11-30T17:06:20.647Z,49.70
2022-11-30T17:09:22.635Z,49.90
2022-11-30T17:12:23.994Z,49.70
2022-11-30T17:15:25.675Z,50.20
2022-11-30T17:18:26.964Z,49.60
2022-11-30T17:21:29.082Z,50.00
2022-11-30T17:24:31.020Z,49.90
2022-11-30T17:27:32.271Z,49.80
2022-11-30T17:30:33.668Z,49.80
2022-11-30T17:33:35.257Z,50.10
2022-11-30T17:36:36.793Z,49.80
2022-11-30T17:39:38.796Z,50.10
2022-11-30T17:42:40.270Z,49.80
2022-11-30T17:45:41.597Z,50.30
2022-11-30T17:48:43.003Z,50.00
2022-11-30T17:51:44.360Z,50.30
2022-11-30T17:54:46.704Z,49.90
2022-11-30T17:57:48.312Z,50.20
2022-11-30T18:00:50.161Z,49.90
2022-11-30T18:03:52.013Z,50.40
2022-11-30T18:06:53.501Z,50.20
2022-11-30T18:09:55.724Z,50.40
2022-11-30T18:12:57.179Z,50.20
2022-11-30T18:16:05.310Z,50.30
2022-11-30T18:19:11.134Z,50.10
2022-11-30T18:22:12.428Z,50.30
2022-11-30T18:25:14.655Z,50.30
2022-11-30T18:28:16.012Z,50.40
2022-11-30T18:31:17.364Z,50.20
2022-11-30T18:34:18.758Z,50.50
2022-11-30T18:37:20.014Z,50.20
2022-11-30T18:40:21.931Z,50.60
2022-11-30T18:43:23.304Z,50.30
2022-11-30T18:46:24.628Z,50.70
2022-11-30T18:49:25.981Z,50.20
2022-11-30T18:52:27.247Z,50.40
2022-11-30T18:55:29.463Z,50.20
2022-11-30T18:58:31.102Z,50.30
2022-11-30T19:01:33.029Z,50.20
2022-11-30T19:04:34.375Z,50.70
2022-11-30T19:07:39.304Z,50.30
2022-11-30T19:10:41.344Z,50.60
2022-11-30T19:13:42.923Z,50.30
2022-11-30T19:16:44.447Z,50.50
2022-11-30T19:19:45.835Z,50.40
2022-11-30T19:22:47.094Z,50.20
2022-11-30T19:25:49.022Z,50.30
2022-11-30T19:28:52.551Z,50.60
2022-11-30T19:31:53.802Z,50.40
2022-11-30T19:34:55.080Z,50.70
2022-11-30T19:37:56.477Z,50.70
2022-11-30T19:40:58.399Z,50.60
2022-11-30T19:44:03.775Z,50.60
2022-11-30T19:47:05.513Z,50.40
2022-11-30T19:50:07.018Z,50.70
2022-11-30T19:53:08.381Z,50.50
2022-11-30T19:56:11.505Z,50.60
2022-11-30T19:59:12.815Z,50.40
2022-11-30T20:02:14.130Z,50.50
2022-11-30T20:05:15.573Z,50.90
2022-11-30T20:08:17.081Z,50.10
2022-11-30T20:11:19.034Z,50.70
2022-11-30T20:14:21.968Z,50.70
2022-11-30T20:17:23.418Z,50.50
2022-11-30T20:20:24.921Z,50.70
2022-11-30T20:23:26.315Z,50.00
2022-11-30T20:26:29.456Z,50.30
2022-11-30T20:29:30.790Z,50.70
2022-11-30T20:32:32.064Z,50.30
2022-11-30T20:35:34.332Z,50.80
2022-11-30T20:38:36.069Z,50.30
2022-11-30T20:41:38.143Z,50.40
2022-11-30T20:44:39.541Z,50.40
2022-11-30T20:47:49.304Z,50.50
2022-11-30T20:51:22.050Z,49.90
2022-11-30T20:54:14.424Z,50.50
2022-11-30T20:57:25.155Z,50.40
2022-11-30T21:00:26.514Z,51.00
2022-11-30T21:03:27.926Z,50.40
2022-11-30T21:06:29.356Z,50.40
2022-11-30T21:09:30.744Z,50.80
2022-11-30T21:12:32.727Z,50.60
2022-11-30T21:15:34.205Z,50.40
2022-11-30T21:18:35.847Z,50.60
2022-11-30T21:21:37.214Z,50.70
2022-11-30T21:24:38.531Z,50.90
2022-11-30T21:27:40.693Z,50.60
2022-11-30T21:30:42.108Z,50.60
2022-11-30T21:33:50.384Z,50.50
2022-11-30T21:36:53.594Z,50.70
2022-11-30T21:39:54.931Z,50.70
2022-11-30T21:42:56.959Z,50.40
2022-11-30T21:45:59.280Z,50.20
2022-11-30T21:49:00.752Z,50.50
2022-11-30T21:52:02.112Z,50.40
2022-11-30T21:55:03.781Z,50.70
2022-11-30T21:58:05.791Z,50.50
2022-11-30T22:01:10.138Z,50.70
2022-11-30T22:04:12.280Z,50.20
2022-11-30T22:07:13.741Z,50.40
2022-11-30T22:10:15.228Z,50.50
2022-11-30T22:13:17.144Z,50.60
2022-11-30T22:16:19.118Z,50.40
2022-11-30T22:19:20.456Z,50.50
2022-11-30T22:22:21.698Z,50.50
2022-11-30T22:25:22.916Z,50.80
2022-11-30T22:28:24.926Z,50.30
2022-11-30T22:31:27.196Z,50.40
2022-11-30T22:34:28.529Z,50.50
2022-11-30T22:37:29.801Z,50.80
2022-11-30T22:40:31.039Z,50.50
2022-11-30T22:43:33.224Z,50.40
2022-11-30T22:46:36.459Z,50.60
2022-11-30T22:49:37.890Z,49.70
2022-11-30T22:53:02.046Z,50.00
2022-11-30T22:56:01.904Z,50.40
2022-11-30T22:59:04.355Z,50.30
2022-11-30T23:02:05.651Z,50.20
2022-11-30T23:05:07.101Z,50.20
2022-11-30T23:08:08.617Z,50.00
2022-11-30T23:11:10.761Z,50.50
2022-11-30T23:14:15.277Z,50.20
2022-11-30T23:17:16.641Z,50.20
2022-11-30T23:20:17.931Z,50.10
2022-11-30T23:23:19.200Z,50.20
2022-11-30T23:26:21.786Z,50.10
2022-11-30T23:29:23.736Z,50.20
2022-11-30T23:32:25.084Z,50.10
2022-11-30T23:35:26.472Z,50.20
2022-11-30T23:38:27.845Z,50.40
2022-11-30T23:41:29.290Z,50.10
2022-11-30T23:44:31.726Z,50.10
2022-11-30T23:47:33.167Z,50.10
2022-11-30T23:50:34.663Z,50.50
2022-11-30T23:53:35.945Z,50.20
2022-11-30T23:56:37.639Z,50.20
2022-11-30T23:59:39.502Z,50.00
